createdAt,value
2023-03-22T00:01:54.356Z,73.20
2023-03-22T00:04:56.107Z,76.60
2023-03-22T00:07:58.197Z,78.20
2023-03-22T00:10:59.928Z,80.00
2023-03-22T00:17:03.069Z,77.30
2023-03-22T00:20:05.664Z,74.90
2023-03-22T00:23:07.265Z,71.90
2023-03-22T00:29:10.842Z,72.60
2023-03-22T00:35:14.086Z,67.20
2023-03-22T00:38:15.709Z,73.20
2023-03-22T00:44:23.259Z,80.40
2023-03-22T00:47:24.900Z,80.90
2023-03-22T00:50:26.518Z,77.20
2023-03-22T00:56:33.001Z,75.60
2023-03-22T00:59:34.601Z,86.80
2023-03-22T01:02:36.412Z,123.50
2023-03-22T01:05:38.432Z,99.50
2023-03-22T01:08:40.166Z,148.20
2023-03-22T01:11:42.868Z,187.50
2023-03-22T01:14:44.664Z,130.20
2023-03-22T01:17:46.516Z,229.60
2023-03-22T01:20:48.242Z,158.30
2023-03-22T01:23:49.859Z,135.40
2023-03-22T01:29:53.308Z,125.90
2023-03-22T01:32:56.022Z,105.40
2023-03-22T01:35:57.945Z,124.20
2023-03-22T01:38:59.815Z,126.00
2023-03-22T01:42:02.815Z,118.90
2023-03-22T01:45:38.132Z,123.20
2023-03-22T01:48:42.331Z,161.00
2023-03-22T01:51:46.789Z,130.40
2023-03-22T01:54:50.728Z,190.40
2023-03-22T01:57:53.567Z,307.60
2023-03-22T02:00:55.428Z,380.10
2023-03-22T02:04:05.666Z,324.30
2023-03-22T02:07:13.589Z,222.60
2023-03-22T02:10:33.357Z,286.10
2023-03-22T02:14:09.090Z,183.10
2023-03-22T02:17:31.968Z,316.40
2023-03-22T02:20:53.135Z,250.80
2023-03-22T02:24:15.097Z,274.60
2023-03-22T02:27:41.599Z,411.00
2023-03-22T02:31:17.234Z,294.40
2023-03-22T02:34:44.423Z,264.90
2023-03-22T02:38:05.743Z,171.60
2023-03-22T02:41:32.107Z,286.70
2023-03-22T02:44:49.787Z,400.70
2023-03-22T02:48:01.310Z,379.30
2023-03-22T02:51:08.439Z,315.90
2023-03-22T02:54:13.845Z,310.90
2023-03-22T02:57:33.918Z,342.60
2023-03-22T03:00:36.351Z,313.60
2023-03-22T03:03:39.198Z,233.30
2023-03-22T03:06:43.607Z,248.40
2023-03-22T03:09:45.628Z,252.80
2023-03-22T03:12:47.412Z,193.10
2023-03-22T03:15:52.878Z,244.50
2023-03-22T03:19:08.008Z,261.10
2023-03-22T03:22:33.001Z,263.60
2023-03-22T03:26:12.239Z,291.40
2023-03-22T03:29:36.933Z,348.10
2023-03-22T03:32:47.715Z,338.60
2023-03-22T03:35:58.837Z,272.40
2023-03-22T03:39:01.820Z,233.30
2023-03-22T03:42:04.816Z,270.40
2023-03-22T03:45:07.801Z,283.60
2023-03-22T03:48:15.441Z,288.60
2023-03-22T03:51:17.270Z,268.20
2023-03-22T03:57:21.071Z,260.80
2023-03-22T04:00:23.023Z,237.70
2023-03-22T04:03:25.528Z,224.50
2023-03-22T04:06:27.814Z,226.10
2023-03-22T04:09:35.286Z,239.50
2023-03-22T04:12:37.033Z,203.40
2023-03-22T04:15:38.717Z,212.30
2023-03-22T04:21:42.303Z,358.70
2023-03-22T04:24:44.870Z,364.10
2023-03-22T04:27:47.200Z,341.40
2023-03-22T04:30:49.452Z,312.60
2023-03-22T04:33:51.358Z,379.80
2023-03-22T04:36:53.306Z,351.80
2023-03-22T04:39:55.077Z,325.10
2023-03-22T04:46:03.965Z,272.10
2023-03-22T04:49:06.277Z,224.10
2023-03-22T04:52:08.369Z,260.60
2023-03-22T04:55:10.062Z,274.70
2023-03-22T04:58:11.708Z,245.00
2023-03-22T05:01:16.556Z,178.80
2023-03-22T05:04:19.036Z,195.90
2023-03-22T05:07:20.837Z,138.10
2023-03-22T05:13:26.495Z,197.20
2023-03-22T05:16:28.252Z,131.60
2023-03-22T05:19:29.947Z,149.60
2023-03-22T05:25:33.328Z,144.50
2023-03-22T05:28:35.009Z,115.20
2023-03-22T05:37:40.388Z,115.00
2023-03-22T05:40:43.085Z,149.80
2023-03-22T05:43:44.808Z,130.80
2023-03-22T05:46:46.701Z,169.20
2023-03-22T05:49:48.751Z,177.00
2023-03-22T05:52:50.983Z,135.40
2023-03-22T05:55:55.362Z,151.10
2023-03-22T05:58:57.137Z,120.20
2023-03-22T06:01:59.125Z,87.90
2023-03-22T06:05:00.785Z,119.50
2023-03-22T06:08:02.626Z,118.50
2023-03-22T06:11:07.754Z,98.90
2023-03-22T06:14:12.597Z,130.50
2023-03-22T06:17:14.288Z,122.30
2023-03-22T06:23:17.551Z,102.50
2023-03-22T06:26:21.850Z,101.60
2023-03-22T06:29:24.546Z,87.50
2023-03-22T06:32:26.650Z,107.50
2023-03-22T06:35:28.226Z,74.40
2023-03-22T06:44:33.976Z,119.70
2023-03-22T06:47:35.522Z,98.90
2023-03-22T06:50:37.440Z,66.20
2023-03-22T06:53:39.303Z,65.00
2023-03-22T06:56:40.879Z,75.90
2023-03-22T06:59:42.592Z,73.00
2023-03-22T07:02:44.252Z,80.10
2023-03-22T07:05:46.082Z,71.90
2023-03-22T07:08:48.005Z,89.10
2023-03-22T07:11:50.333Z,71.40
2023-03-22T07:17:53.378Z,68.30
2023-03-22T07:23:56.557Z,51.60
2023-03-22T07:26:58.087Z,52.80
2023-03-22T07:29:59.748Z,52.30
2023-03-22T07:33:01.454Z,52.30
2023-03-22T07:36:04.318Z,49.20
2023-03-22T07:39:05.978Z,51.20
2023-03-22T07:42:07.648Z,48.60
2023-03-22T07:45:09.642Z,46.60
2023-03-22T07:48:11.436Z,49.80
2023-03-22T07:51:13.102Z,49.40
2023-03-22T07:54:30.601Z,46.20
2023-03-22T07:57:35.741Z,44.10
2023-03-22T08:00:37.651Z,44.60
2023-03-22T08:03:39.391Z,42.20
2023-03-22T08:06:41.692Z,37.70
2023-03-22T08:09:43.392Z,36.20
2023-03-22T08:12:44.993Z,34.40
2023-03-22T08:15:46.697Z,32.70
2023-03-22T08:18:48.702Z,32.50
2023-03-22T08:21:50.339Z,31.10
2023-03-22T08:24:52.384Z,29.20
2023-03-22T08:27:54.045Z,30.10
2023-03-22T08:30:55.568Z,29.40
2023-03-22T08:33:57.288Z,28.60
2023-03-22T08:36:58.974Z,29.40
2023-03-22T08:40:00.671Z,28.70
2023-03-22T08:43:02.332Z,27.80
2023-03-22T08:46:04.202Z,28.90
2023-03-22T08:49:05.775Z,25.60
2023-03-22T08:52:07.485Z,26.30
2023-03-22T08:55:09.778Z,21.70
2023-03-22T08:58:15.895Z,22.30
2023-03-22T09:01:17.744Z,21.30
2023-03-22T09:04:19.546Z,22.70
2023-03-22T09:07:21.261Z,21.30
2023-03-22T09:10:22.825Z,20.70
2023-03-22T09:13:24.579Z,19.90
2023-03-22T09:16:26.722Z,18.90
2023-03-22T09:19:28.530Z,20.40
2023-03-22T09:22:30.090Z,19.60
2023-03-22T09:25:31.771Z,18.10
2023-03-22T09:28:33.856Z,17.80
2023-03-22T09:31:35.449Z,17.40
2023-03-22T09:34:37.045Z,19.10
2023-03-22T09:37:38.695Z,16.90
2023-03-22T09:40:51.980Z,16.80
2023-03-22T09:44:00.530Z,16.20
2023-03-22T09:47:04.050Z,15.50
2023-03-22T09:50:12.028Z,15.20
2023-03-22T09:53:15.721Z,17.40
2023-03-22T09:56:21.438Z,15.50
2023-03-22T09:59:39.071Z,17.10
2023-03-22T10:02:46.611Z,17.60
2023-03-22T10:06:01.411Z,17.20
2023-03-22T10:09:21.387Z,18.60
2023-03-22T10:12:31.885Z,22.40
2023-03-22T10:15:37.478Z,19.10
2023-03-22T10:18:45.452Z,19.40
2023-03-22T10:21:50.164Z,20.40
2023-03-22T10:24:52.729Z,19.80
2023-03-22T10:27:54.488Z,19.50
2023-03-22T10:30:57.375Z,20.70
2023-03-22T10:34:17.044Z,18.60
2023-03-22T10:37:22.645Z,19.60
2023-03-22T10:40:33.051Z,19.70
2023-03-22T10:43:39.324Z,20.20
2023-03-22T10:46:41.762Z,17.30
2023-03-22T10:49:47.425Z,18.90
2023-03-22T10:53:14.248Z,17.10
2023-03-22T10:56:17.991Z,18.90
2023-03-22T10:59:50.848Z,20.10
2023-03-22T11:02:54.193Z,19.10
2023-03-22T11:06:07.298Z,19.20
2023-03-22T11:09:16.617Z,19.20
2023-03-22T11:12:18.322Z,18.60
2023-03-22T11:15:30.315Z,18.90
2023-03-22T11:18:34.214Z,19.50
2023-03-22T11:21:35.945Z,18.70
2023-03-22T11:24:37.613Z,20.60
2023-03-22T11:28:06.323Z,17.80
2023-03-22T11:31:19.546Z,17.50
2023-03-22T11:34:23.058Z,20.00
2023-03-22T11:37:24.727Z,20.50
2023-03-22T11:40:34.873Z,20.50
2023-03-22T11:43:41.106Z,24.90
2023-03-22T11:46:54.368Z,21.00
2023-03-22T11:49:55.948Z,20.90
2023-03-22T11:52:57.501Z,19.90
2023-03-22T11:55:59.912Z,18.10
2023-03-22T11:59:08.441Z,19.10
2023-03-22T12:02:31.236Z,21.90
2023-03-22T12:05:39.218Z,19.60
2023-03-22T12:08:56.826Z,21.80
2023-03-22T12:12:00.379Z,20.10
2023-03-22T12:15:06.575Z,19.10
2023-03-22T12:18:24.580Z,18.40
2023-03-22T12:21:26.199Z,17.40
2023-03-22T12:24:32.245Z,19.20
2023-03-22T12:27:37.416Z,19.70
2023-03-22T12:30:43.189Z,20.80
2023-03-22T12:33:49.432Z,16.60
2023-03-22T12:36:53.548Z,19.40
2023-03-22T12:40:13.648Z,20.20
2023-03-22T12:43:45.446Z,18.50
2023-03-22T12:46:51.532Z,19.10
2023-03-22T12:50:00.974Z,18.90
2023-03-22T12:53:02.958Z,18.80
2023-03-22T12:56:05.174Z,19.70
2023-03-22T12:59:15.472Z,21.60
2023-03-22T13:02:20.121Z,17.40
2023-03-22T13:05:21.812Z,19.60
2023-03-22T13:08:23.442Z,18.00
2023-03-22T13:11:25.235Z,17.70
2023-03-22T13:14:48.811Z,19.20
2023-03-22T13:17:50.379Z,19.40
2023-03-22T13:21:15.532Z,18.60
2023-03-22T13:24:20.763Z,17.00
2023-03-22T13:27:22.484Z,19.00
2023-03-22T13:30:36.329Z,16.80
2023-03-22T13:33:37.956Z,17.70
2023-03-22T13:36:39.874Z,17.20
2023-03-22T13:39:41.554Z,15.60
2023-03-22T13:42:43.132Z,19.80
2023-03-22T13:46:03.613Z,15.80
2023-03-22T13:49:37.868Z,17.10
2023-03-22T13:52:42.489Z,19.30
2023-03-22T13:55:46.725Z,16.20
2023-03-22T13:58:51.147Z,14.60
2023-03-22T14:02:16.742Z,14.50
2023-03-22T14:05:22.032Z,14.90
2023-03-22T14:08:26.748Z,16.10
2023-03-22T14:11:32.939Z,15.00
2023-03-22T14:14:41.310Z,17.30
2023-03-22T14:18:01.185Z,16.10
2023-03-22T14:21:09.878Z,16.90
